createdAt,value
2022-09-01T00:00:14.325Z,955.48
2022-09-01T00:01:14.305Z,955.38
2022-09-01T00:02:14.321Z,955.41
2022-09-01T00:03:14.286Z,955.40
2022-09-01T00:04:14.322Z,955.42
2022-09-01T00:05:14.263Z,955.40
2022-09-01T00:06:14.251Z,955.40
2022-09-01T00:07:14.236Z,955.39
2022-09-01T00:08:18.472Z,955.37
2022-09-01T00:09:14.216Z,955.36
2022-09-01T00:10:14.222Z,955.34
2022-09-01T00:11:14.194Z,955.32
2022-09-01T00:12:14.175Z,955.30
2022-09-01T00:13:14.173Z,955.33
2022-09-01T00:14:29.900Z,955.30
2022-09-01T00:15:15.155Z,955.33
2022-09-01T00:16:14.237Z,955.34
2022-09-01T00:17:14.128Z,955.32
2022-09-01T00:18:14.113Z,955.35
2022-09-01T00:19:14.093Z,955.35
2022-09-01T00:20:18.221Z,955.31
2022-09-01T00:21:15.084Z,955.35
2022-09-01T00:22:14.062Z,955.39
2022-09-01T00:23:14.055Z,955.36
2022-09-01T00:24:14.043Z,955.35
2022-09-01T00:25:14.032Z,955.35
2022-09-01T00:26:14.022Z,955.38
2022-09-01T00:27:14.002Z,955.38
2022-09-01T00:28:13.992Z,955.34
2022-09-01T00:29:13.981Z,955.31
2022-09-01T00:30:13.969Z,955.31
2022-09-01T00:31:14.010Z,955.35
2022-09-01T00:32:13.953Z,955.28
2022-09-01T00:33:13.932Z,955.37
2022-09-01T00:34:13.925Z,955.33
2022-09-01T00:35:13.911Z,955.38
2022-09-01T00:36:13.912Z,955.36
2022-09-01T00:37:13.892Z,955.35
2022-09-01T00:38:13.881Z,955.44
2022-09-01T00:39:13.871Z,955.39
2022-09-01T00:40:13.949Z,955.35
2022-09-01T00:41:13.842Z,955.35
2022-09-01T00:42:13.841Z,955.39
2022-09-01T00:43:13.821Z,955.32
2022-09-01T00:44:13.810Z,955.35
2022-09-01T00:45:13.801Z,955.33
2022-09-01T00:46:13.822Z,955.37
2022-09-01T00:47:13.781Z,955.35
2022-09-01T00:48:13.771Z,955.38
2022-09-01T00:49:13.759Z,955.42
2022-09-01T00:50:13.741Z,955.42
2022-09-01T00:51:13.730Z,955.41
2022-09-01T00:52:13.731Z,955.38
2022-09-01T00:53:13.711Z,955.39
2022-09-01T00:54:13.701Z,955.35
2022-09-01T00:55:13.689Z,955.41
2022-09-01T00:56:13.680Z,955.33
2022-09-01T00:57:13.676Z,955.33
2022-09-01T00:58:19.764Z,955.44
2022-09-01T00:59:14.639Z,955.42
2022-09-01T01:00:13.630Z,955.37
2022-09-01T01:01:13.657Z,955.41
2022-09-01T01:02:13.692Z,955.34
2022-09-01T01:03:13.606Z,955.37
2022-09-01T01:04:13.579Z,955.35
2022-09-01T01:05:14.402Z,955.38
2022-09-01T01:06:13.558Z,955.39
2022-09-01T01:07:13.559Z,955.38
2022-09-01T01:08:13.548Z,955.40
2022-09-01T01:09:13.527Z,955.35
2022-09-01T01:10:13.508Z,955.34
2022-09-01T01:11:13.498Z,955.37
2022-09-01T01:12:13.487Z,955.39
2022-09-01T01:13:13.495Z,955.40
2022-09-01T01:14:13.469Z,955.39
2022-09-01T01:15:13.462Z,955.38
2022-09-01T01:16:13.473Z,955.37
2022-09-01T01:17:13.436Z,955.34
2022-09-01T01:18:13.439Z,955.31
2022-09-01T01:19:13.446Z,955.29
2022-09-01T01:20:13.422Z,955.31
2022-09-01T01:21:13.387Z,955.28
2022-09-01T01:22:13.407Z,955.26
2022-09-01T01:23:13.398Z,955.23
2022-09-01T01:24:13.356Z,955.25
2022-09-01T01:25:13.346Z,955.23
2022-09-01T01:26:13.327Z,955.25
2022-09-01T01:27:13.327Z,955.23
2022-09-01T01:28:13.317Z,955.23
2022-09-01T01:29:13.296Z,955.26
2022-09-01T01:30:13.284Z,955.22
2022-09-01T01:31:13.381Z,955.27
2022-09-01T01:32:13.265Z,955.23
2022-09-01T01:33:13.323Z,955.25
2022-09-01T01:34:13.235Z,955.21
2022-09-01T01:35:13.233Z,955.21
2022-09-01T01:36:13.219Z,955.15
2022-09-01T01:37:13.204Z,955.20
2022-09-01T01:38:13.194Z,955.25
2022-09-01T01:39:13.195Z,955.24
2022-09-01T01:40:13.212Z,955.23
2022-09-01T01:41:13.163Z,955.16
2022-09-01T01:42:13.144Z,955.16
2022-09-01T01:43:13.154Z,955.19
2022-09-01T01:44:13.124Z,955.19
2022-09-01T01:45:13.114Z,955.19
2022-09-01T01:46:13.207Z,955.21
2022-09-01T01:47:13.096Z,955.21
2022-09-01T01:48:13.083Z,955.16
2022-09-01T01:49:13.087Z,955.17
2022-09-01T01:50:13.052Z,955.21
2022-09-01T01:51:13.043Z,955.22
2022-09-01T01:52:13.033Z,955.22
2022-09-01T01:53:13.058Z,955.21
2022-09-01T01:54:13.002Z,955.19
2022-09-01T01:55:13.014Z,955.22
2022-09-01T01:56:12.993Z,955.21
2022-09-01T01:57:12.973Z,955.15
2022-09-01T01:58:13.007Z,955.20
2022-09-01T01:59:12.963Z,955.24
2022-09-01T02:00:12.945Z,955.23
2022-09-01T02:01:13.026Z,955.22
2022-09-01T02:02:13.009Z,955.24
2022-09-01T02:03:12.911Z,955.22
2022-09-01T02:04:12.900Z,955.19
2022-09-01T02:05:12.891Z,955.24
2022-09-01T02:06:12.881Z,955.14
2022-09-01T02:07:12.867Z,955.18
2022-09-01T02:08:12.882Z,955.17
2022-09-01T02:09:12.851Z,955.10
2022-09-01T02:10:12.863Z,955.15
2022-09-01T02:11:12.819Z,955.21
2022-09-01T02:12:15.621Z,955.16
2022-09-01T02:13:12.791Z,955.18
2022-09-01T02:14:12.800Z,955.18
2022-09-01T02:15:12.780Z,955.14
2022-09-01T02:16:13.027Z,955.14
2022-09-01T02:17:12.753Z,955.17
2022-09-01T02:18:12.740Z,955.15
2022-09-01T02:19:12.720Z,955.17
2022-09-01T02:20:12.720Z,955.09
2022-09-01T02:21:17.670Z,955.09
2022-09-01T02:22:13.690Z,955.11
2022-09-01T02:23:12.680Z,955.07
2022-09-01T02:24:12.671Z,955.15
2022-09-01T02:25:12.668Z,955.17
2022-09-01T02:26:17.255Z,955.17
2022-09-01T02:27:13.629Z,955.13
2022-09-01T02:28:12.670Z,955.12
2022-09-01T02:29:12.639Z,955.13
2022-09-01T02:30:12.599Z,955.14
2022-09-01T02:31:12.646Z,955.13
2022-09-01T02:32:12.578Z,955.19
2022-09-01T02:33:12.568Z,955.11
2022-09-01T02:34:12.558Z,955.14
2022-09-01T02:35:12.559Z,955.18
2022-09-01T02:36:12.538Z,955.11
2022-09-01T02:37:12.517Z,955.13
2022-09-01T02:38:12.553Z,955.15
2022-09-01T02:39:12.497Z,955.15
2022-09-01T02:40:12.545Z,955.22
2022-09-01T02:41:12.477Z,955.17
2022-09-01T02:42:12.476Z,955.14
2022-09-01T02:43:12.449Z,955.21
2022-09-01T02:44:12.436Z,955.20
2022-09-01T02:45:12.438Z,955.21
2022-09-01T02:46:12.507Z,955.22
2022-09-01T02:47:12.409Z,955.23
2022-09-01T02:48:12.442Z,955.21
2022-09-01T02:49:12.387Z,955.25
2022-09-01T02:50:12.377Z,955.20
2022-09-01T02:51:12.365Z,955.21
2022-09-01T02:52:12.355Z,955.19
2022-09-01T02:53:12.336Z,955.17
2022-09-01T02:54:12.326Z,955.18
2022-09-01T02:55:12.318Z,955.18
2022-09-01T02:56:12.325Z,955.15
2022-09-01T02:57:12.296Z,955.14
2022-09-01T02:58:12.338Z,955.23
2022-09-01T02:59:12.273Z,955.21
2022-09-01T03:00:12.256Z,955.14
2022-09-01T03:01:12.314Z,955.16
2022-09-01T03:02:12.245Z,955.10
2022-09-01T03:03:12.225Z,955.12
2022-09-01T03:04:12.215Z,955.14
2022-09-01T03:05:12.243Z,955.14
2022-09-01T03:06:12.197Z,955.12
2022-09-01T03:07:12.194Z,955.09
2022-09-01T03:08:12.191Z,955.14
2022-09-01T03:09:12.160Z,955.15
2022-09-01T03:10:12.143Z,955.07
2022-09-01T03:11:13.146Z,955.07
2022-09-01T03:12:12.146Z,955.06
2022-09-01T03:13:12.114Z,955.10
2022-09-01T03:14:12.094Z,955.13
2022-09-01T03:15:12.297Z,955.08
2022-09-01T03:16:12.112Z,955.09
2022-09-01T03:17:12.071Z,955.06
2022-09-01T03:18:12.084Z,955.03
2022-09-01T03:19:12.054Z,955.05
2022-09-01T03:20:12.023Z,955.05
2022-09-01T03:21:12.024Z,955.01
2022-09-01T03:22:12.013Z,954.96
2022-09-01T03:23:12.021Z,955.04
2022-09-01T03:24:11.982Z,955.01
2022-09-01T03:25:11.972Z,954.99
2022-09-01T03:26:11.962Z,954.99
2022-09-01T03:27:11.959Z,954.95
2022-09-01T03:28:11.941Z,954.96
2022-09-01T03:29:11.941Z,954.93
2022-09-01T03:30:11.912Z,954.94
2022-09-01T03:31:11.910Z,954.92
2022-09-01T03:32:11.945Z,954.97
2022-09-01T03:33:11.881Z,955.03
2022-09-01T03:34:11.883Z,954.93
2022-09-01T03:35:11.861Z,954.97
2022-09-01T03:36:14.895Z,954.96
2022-09-01T03:37:11.840Z,954.91
2022-09-01T03:38:11.875Z,954.92
2022-09-01T03:39:16.487Z,954.88
2022-09-01T03:40:12.838Z,954.92
2022-09-01T03:41:11.800Z,954.93
2022-09-01T03:42:11.780Z,954.90
2022-09-01T03:43:11.769Z,954.83
2022-09-01T03:44:11.770Z,954.86
2022-09-01T03:45:11.751Z,954.84
2022-09-01T03:46:11.758Z,954.83
2022-09-01T03:47:11.729Z,954.80
2022-09-01T03:48:11.723Z,954.84
2022-09-01T03:49:11.717Z,954.84
2022-09-01T03:50:11.699Z,954.86
2022-09-01T03:51:11.680Z,954.86
2022-09-01T03:52:11.669Z,954.90
2022-09-01T03:53:11.662Z,954.82
2022-09-01T03:54:11.658Z,954.86
2022-09-01T03:55:11.646Z,954.85
2022-09-01T03:56:11.618Z,954.87
2022-09-01T03:57:11.616Z,954.85
2022-09-01T03:58:11.648Z,954.83
2022-09-01T03:59:11.588Z,954.81
2022-09-01T04:00:11.599Z,954.83
2022-09-01T04:01:13.889Z,954.84
2022-09-01T04:02:11.634Z,954.85
2022-09-01T04:03:11.546Z,954.89
2022-09-01T04:04:11.528Z,954.85
2022-09-01T04:05:11.525Z,954.84
2022-09-01T04:06:11.528Z,954.82
2022-09-01T04:07:13.460Z,954.90
2022-09-01T04:08:12.562Z,954.82
2022-09-01T04:09:11.490Z,954.85
2022-09-01T04:10:11.474Z,954.84
2022-09-01T04:11:11.477Z,954.85
2022-09-01T04:12:11.437Z,954.84
2022-09-01T04:13:11.428Z,954.81
2022-09-01T04:14:11.416Z,954.86
2022-09-01T04:15:11.407Z,954.81
2022-09-01T04:16:11.414Z,954.80
2022-09-01T04:17:11.406Z,954.82
2022-09-01T04:18:11.377Z,954.81
2022-09-01T04:19:11.356Z,954.78
2022-09-01T04:20:11.345Z,954.84
2022-09-01T04:21:11.336Z,954.76
2022-09-01T04:22:11.325Z,954.77
2022-09-01T04:23:11.327Z,954.74
2022-09-01T04:24:11.306Z,954.76
2022-09-01T04:25:11.294Z,954.70
2022-09-01T04:26:11.313Z,954.71
2022-09-01T04:27:11.294Z,954.72
2022-09-01T04:28:11.255Z,954.72
2022-09-01T04:29:11.246Z,954.76
2022-09-01T04:30:11.235Z,954.79
2022-09-01T04:31:11.273Z,954.79
2022-09-01T04:32:11.214Z,954.82
2022-09-01T04:33:11.214Z,954.85
2022-09-01T04:34:11.185Z,954.81
2022-09-01T04:35:11.194Z,954.85
2022-09-01T04:36:11.174Z,954.80
2022-09-01T04:37:11.153Z,954.76
2022-09-01T04:38:11.154Z,954.75
2022-09-01T04:39:11.916Z,954.77
2022-09-01T04:40:11.169Z,954.73
2022-09-01T04:41:11.114Z,954.72
2022-09-01T04:42:11.103Z,954.75
2022-09-01T04:43:11.105Z,954.75
2022-09-01T04:44:11.082Z,954.78
2022-09-01T04:45:11.418Z,954.79
2022-09-01T04:46:11.095Z,954.79
2022-09-01T04:47:11.062Z,954.76
2022-09-01T04:48:11.043Z,954.69
2022-09-01T04:49:13.025Z,954.68
2022-09-01T04:50:11.004Z,954.75
2022-09-01T04:51:11.006Z,954.71
2022-09-01T04:52:10.981Z,954.71
2022-09-01T04:53:11.001Z,954.77
2022-09-01T04:54:10.962Z,954.68
2022-09-01T04:55:10.991Z,954.74
2022-09-01T04:56:10.951Z,954.74
2022-09-01T04:57:10.932Z,954.78
2022-09-01T04:58:10.912Z,954.83
2022-09-01T04:59:10.920Z,954.76
2022-09-01T05:00:10.891Z,954.75
2022-09-01T05:01:10.967Z,954.80
2022-09-01T05:02:10.931Z,954.83
2022-09-01T05:03:10.872Z,954.90
2022-09-01T05:04:10.849Z,954.85
2022-09-01T05:05:10.841Z,954.82
2022-09-01T05:06:10.841Z,954.81
2022-09-01T05:07:10.810Z,954.91
2022-09-01T05:08:10.838Z,954.88
2022-09-01T05:09:10.790Z,954.88
2022-09-01T05:10:10.782Z,954.88
2022-09-01T05:11:10.769Z,954.92
2022-09-01T05:12:10.762Z,954.81
2022-09-01T05:13:10.769Z,954.81
2022-09-01T05:14:10.739Z,954.88
2022-09-01T05:15:10.720Z,954.83
2022-09-01T05:16:10.768Z,954.80
2022-09-01T05:17:10.699Z,954.80
2022-09-01T05:18:10.690Z,954.86
2022-09-01T05:19:10.689Z,954.82
2022-09-01T05:20:10.671Z,954.84
2022-09-01T05:21:10.686Z,954.83
2022-09-01T05:22:10.646Z,954.80
2022-09-01T05:23:10.639Z,954.87
2022-09-01T05:24:10.638Z,954.85
2022-09-01T05:25:10.608Z,954.88
2022-09-01T05:26:10.607Z,954.84
2022-09-01T05:27:10.592Z,954.90
2022-09-01T05:28:10.578Z,954.86
2022-09-01T05:29:10.757Z,954.84
2022-09-01T05:30:10.568Z,954.87
2022-09-01T05:31:10.608Z,954.88
2022-09-01T05:32:10.556Z,954.91
2022-09-01T05:33:10.519Z,954.85
2022-09-01T05:34:10.728Z,954.88
2022-09-01T05:35:10.496Z,954.87
2022-09-01T05:36:10.498Z,954.86
2022-09-01T05:37:10.476Z,954.86
2022-09-01T05:38:10.467Z,954.84
2022-09-01T05:39:10.459Z,954.83
2022-09-01T05:40:12.284Z,954.87
2022-09-01T05:41:10.436Z,954.79
2022-09-01T05:42:10.419Z,954.80
2022-09-01T05:43:10.405Z,954.83
2022-09-01T05:44:10.396Z,954.80
2022-09-01T05:45:10.386Z,954.86
2022-09-01T05:46:10.385Z,954.83
2022-09-01T05:47:10.366Z,954.84
2022-09-01T05:48:11.353Z,954.94
2022-09-01T05:49:10.336Z,954.89
2022-09-01T05:50:14.266Z,954.89
2022-09-01T05:51:22.632Z,954.87
2022-09-01T05:52:11.315Z,954.88
2022-09-01T05:53:11.009Z,954.91
2022-09-01T05:54:10.285Z,954.92
2022-09-01T05:55:10.275Z,954.88
2022-09-01T05:56:10.274Z,954.86
2022-09-01T05:57:32.745Z,954.91
2022-09-01T05:58:11.246Z,954.92
2022-09-01T05:59:26.368Z,954.88
2022-09-01T06:00:11.345Z,954.96
2022-09-01T06:01:10.242Z,954.89
2022-09-01T06:02:10.306Z,954.92
2022-09-01T06:03:10.357Z,955.00
2022-09-01T06:04:10.173Z,954.89
2022-09-01T06:05:10.174Z,954.88
2022-09-01T06:06:10.185Z,954.93
2022-09-01T06:07:12.768Z,954.96
2022-09-01T06:08:11.134Z,954.91
2022-09-01T06:09:10.114Z,954.94
2022-09-01T06:10:10.107Z,954.99
2022-09-01T06:11:10.113Z,954.99
2022-09-01T06:12:10.093Z,954.96
2022-09-01T06:13:10.656Z,955.01
2022-09-01T06:14:10.053Z,954.95
2022-09-01T06:15:10.049Z,954.97
2022-09-01T06:16:10.125Z,954.96
2022-09-01T06:17:10.023Z,954.97
2022-09-01T06:18:10.041Z,954.97
2022-09-01T06:19:09.993Z,954.98
2022-09-01T06:20:09.993Z,955.00
2022-09-01T06:21:09.983Z,954.98
2022-09-01T06:22:09.972Z,955.05
2022-09-01T06:23:09.951Z,955.02
2022-09-01T06:24:10.002Z,955.07
2022-09-01T06:25:09.961Z,955.05
2022-09-01T06:26:09.943Z,955.05
2022-09-01T06:27:09.927Z,955.06
2022-09-01T06:28:09.899Z,955.05
2022-09-01T06:29:09.883Z,955.06
2022-09-01T06:30:09.891Z,955.06
2022-09-01T06:31:09.881Z,955.10
2022-09-01T06:32:09.880Z,955.16
2022-09-01T06:33:09.838Z,955.07
2022-09-01T06:34:09.830Z,955.11
2022-09-01T06:35:09.820Z,955.12
2022-09-01T06:36:09.829Z,955.10
2022-09-01T06:37:09.807Z,955.13
2022-09-01T06:38:09.789Z,955.15
2022-09-01T06:39:09.772Z,955.15
2022-09-01T06:40:09.839Z,955.09
2022-09-01T06:41:09.760Z,955.12
2022-09-01T06:42:09.739Z,955.07
2022-09-01T06:43:09.728Z,955.08
2022-09-01T06:44:14.347Z,955.10
2022-09-01T06:45:09.699Z,955.09
2022-09-01T06:46:09.764Z,955.11
2022-09-01T06:47:09.701Z,955.13
2022-09-01T06:48:09.688Z,955.14
2022-09-01T06:49:09.660Z,955.13
2022-09-01T06:50:09.648Z,955.14
2022-09-01T06:51:19.090Z,955.17
2022-09-01T06:52:10.620Z,955.17
2022-09-01T06:54:14.024Z,955.15
2022-09-01T06:55:09.596Z,955.18
2022-09-01T06:56:09.629Z,955.17
2022-09-01T06:58:12.986Z,955.18
2022-09-01T06:59:09.558Z,955.19
2022-09-01T07:00:09.539Z,955.15
2022-09-01T07:01:09.528Z,955.21
2022-09-01T07:02:13.926Z,955.21
2022-09-01T07:03:10.506Z,955.19
2022-09-01T07:04:12.855Z,955.18
2022-09-01T07:05:59.731Z,955.19
2022-09-01T07:06:58.757Z,955.19
2022-09-01T07:08:10.457Z,955.18
2022-09-01T07:09:38.557Z,955.21
2022-09-01T07:10:26.185Z,955.21
2022-09-01T07:12:25.770Z,955.20
2022-09-01T07:13:10.409Z,955.21
2022-09-01T07:14:16.427Z,955.21
2022-09-01T07:17:25.593Z,955.24
2022-09-01T07:18:10.329Z,955.20
2022-09-01T07:19:09.326Z,955.28
2022-09-01T07:20:25.376Z,955.23
2022-09-01T07:21:38.747Z,955.30
2022-09-01T07:22:35.296Z,955.25
2022-09-01T07:23:10.274Z,955.28
2022-09-01T07:24:11.082Z,955.28
2022-09-01T07:25:11.939Z,955.24
2022-09-01T07:26:09.301Z,955.32
2022-09-01T07:27:09.452Z,955.28
2022-09-01T07:28:09.216Z,955.27
2022-09-01T07:29:09.224Z,955.31
2022-09-01T07:30:09.204Z,955.28
2022-09-01T07:35:11.902Z,955.25
2022-09-01T07:43:10.057Z,955.37
2022-09-01T07:44:09.022Z,955.40
2022-09-01T07:48:10.040Z,955.37
2022-09-01T07:50:37.073Z,955.36
2022-09-01T07:52:09.941Z,955.41
2022-09-01T07:53:08.963Z,955.43
2022-09-01T07:54:08.912Z,955.45
2022-09-01T07:55:08.911Z,955.43
2022-09-01T07:56:08.900Z,955.51
2022-09-01T07:57:08.882Z,955.46
2022-09-01T07:58:08.884Z,955.46
2022-09-01T07:59:08.871Z,955.46
2022-09-01T08:00:08.855Z,955.49
2022-09-01T08:01:08.844Z,955.45
2022-09-01T08:02:08.880Z,955.47
2022-09-01T08:03:08.944Z,955.52
2022-09-01T08:04:08.809Z,955.52
2022-09-01T08:05:08.791Z,955.59
2022-09-01T08:06:08.798Z,955.57
2022-09-01T08:07:08.772Z,955.50
2022-09-01T08:08:28.659Z,955.54
2022-09-01T08:09:11.872Z,955.56
2022-09-01T08:10:09.758Z,955.55
2022-09-01T08:11:08.725Z,955.55
2022-09-01T08:12:08.714Z,955.57
2022-09-01T08:13:15.220Z,955.51
2022-09-01T08:14:09.690Z,955.58
2022-09-01T08:16:17.023Z,955.59
2022-09-01T08:17:18.100Z,955.67
2022-09-01T08:18:09.692Z,955.66
2022-09-01T08:19:16.658Z,955.61
2022-09-01T08:20:09.637Z,955.69
2022-09-01T08:21:08.630Z,955.65
2022-09-01T08:22:08.610Z,955.68
2022-09-01T08:23:08.583Z,955.65
2022-09-01T08:24:08.579Z,955.63
2022-09-01T08:25:08.559Z,955.67
2022-09-01T08:26:08.556Z,955.65
2022-09-01T08:27:08.551Z,955.69
2022-09-01T08:28:08.543Z,955.69
2022-09-01T08:29:08.538Z,955.70
2022-09-01T08:30:08.509Z,955.69
2022-09-01T08:31:11.166Z,955.72
2022-09-01T08:32:08.488Z,955.72
2022-09-01T08:33:11.533Z,955.72
2022-09-01T08:34:08.457Z,955.74
2022-09-01T08:35:08.448Z,955.70
2022-09-01T08:36:08.438Z,955.70
2022-09-01T08:37:08.439Z,955.73
2022-09-01T08:38:08.447Z,955.69
2022-09-01T08:39:08.399Z,955.65
2022-09-01T08:40:08.429Z,955.65
2022-09-01T08:41:08.387Z,955.66
2022-09-01T08:42:08.754Z,955.67
2022-09-01T08:43:11.940Z,955.69
2022-09-01T08:44:09.368Z,955.72
2022-09-01T08:45:08.329Z,955.66
2022-09-01T08:46:08.363Z,955.72
2022-09-01T08:47:08.308Z,955.66
2022-09-01T08:48:57.340Z,955.68
2022-09-01T08:49:24.809Z,955.82
2022-09-01T08:50:09.289Z,955.68
2022-09-01T08:51:14.113Z,955.73
2022-09-01T08:52:09.255Z,955.78
2022-09-01T08:53:09.555Z,955.72
2022-09-01T08:54:08.236Z,955.76
2022-09-01T08:55:08.235Z,955.80
2022-09-01T08:56:08.592Z,955.71
2022-09-01T08:57:08.198Z,955.82
2022-09-01T08:58:08.195Z,955.90
2022-09-01T08:59:08.185Z,955.83
2022-09-01T09:00:08.173Z,955.81
2022-09-01T09:01:08.350Z,955.79
2022-09-01T09:02:08.165Z,955.78
2022-09-01T09:03:18.460Z,955.75
2022-09-01T09:04:09.156Z,955.78
2022-09-01T09:05:15.803Z,955.70
2022-09-01T09:06:09.116Z,955.76
2022-09-01T09:07:08.137Z,955.72
2022-09-01T09:08:08.199Z,955.78
2022-09-01T09:09:08.065Z,955.79
2022-09-01T09:10:08.066Z,955.76
2022-09-01T09:11:08.046Z,955.84
2022-09-01T09:12:08.692Z,955.80
2022-09-01T09:13:08.016Z,955.78
2022-09-01T09:14:08.014Z,955.72
2022-09-01T09:15:08.005Z,955.81
2022-09-01T09:16:08.604Z,955.76
2022-09-01T09:17:07.981Z,955.69
2022-09-01T09:18:20.219Z,955.72
2022-09-01T09:19:08.984Z,955.74
2022-09-01T09:20:09.186Z,955.81
2022-09-01T09:21:07.934Z,955.79
2022-09-01T09:22:07.935Z,955.80
2022-09-01T09:23:08.068Z,955.77
2022-09-01T09:24:07.895Z,955.80
2022-09-01T09:25:08.295Z,955.77
2022-09-01T09:26:08.326Z,955.74
2022-09-01T09:27:09.723Z,955.77
2022-09-01T09:28:07.874Z,955.76
2022-09-01T09:29:07.859Z,955.79
2022-09-01T09:30:11.224Z,955.68
2022-09-01T09:31:08.310Z,955.75
2022-09-01T09:32:22.479Z,955.76
2022-09-01T09:33:44.190Z,955.70
2022-09-01T09:34:08.787Z,955.69
2022-09-01T09:35:07.771Z,955.76
2022-09-01T09:36:07.774Z,955.76
2022-09-01T09:37:07.745Z,955.72
2022-09-01T09:38:07.740Z,955.75
2022-09-01T09:39:07.732Z,955.71
2022-09-01T09:40:09.893Z,955.69
2022-09-01T09:41:16.579Z,955.70
2022-09-01T09:42:08.704Z,955.67
2022-09-01T09:43:07.704Z,955.71
2022-09-01T09:44:11.049Z,955.71
2022-09-01T09:45:08.173Z,955.63
2022-09-01T09:46:23.351Z,955.63
2022-09-01T09:47:27.280Z,955.71
2022-09-01T09:48:10.826Z,955.69
2022-09-01T09:49:07.612Z,955.61
2022-09-01T09:50:07.640Z,955.56
2022-09-01T09:51:07.660Z,955.63
2022-09-01T09:52:07.590Z,955.59
2022-09-01T09:53:07.574Z,955.61
2022-09-01T09:54:07.581Z,955.62
2022-09-01T09:55:07.549Z,955.64
2022-09-01T09:56:07.562Z,955.67
2022-09-01T09:57:07.525Z,955.70
2022-09-01T09:58:07.512Z,955.67
2022-09-01T09:59:07.519Z,955.60
2022-09-01T10:00:07.491Z,955.60
2022-09-01T10:01:07.519Z,955.62
2022-09-01T10:02:07.483Z,955.61
2022-09-01T10:03:08.697Z,955.61
2022-09-01T10:04:07.544Z,955.61
2022-09-01T10:05:07.432Z,955.57
2022-09-01T10:06:07.421Z,955.55
2022-09-01T10:07:07.423Z,955.56
2022-09-01T10:08:07.401Z,955.57
2022-09-01T10:09:07.389Z,955.52
2022-09-01T10:10:07.370Z,955.54
2022-09-01T10:11:08.082Z,955.60
2022-09-01T10:12:07.361Z,955.66
2022-09-01T10:13:07.340Z,955.60
2022-09-01T10:14:07.331Z,955.61
2022-09-01T10:15:12.525Z,955.50
2022-09-01T10:16:09.199Z,955.50
2022-09-01T10:17:07.357Z,955.53
2022-09-01T10:18:20.632Z,955.53
2022-09-01T10:19:12.541Z,955.57
2022-09-01T10:20:07.259Z,955.51
2022-09-01T10:21:07.248Z,955.49
2022-09-01T10:22:07.238Z,955.54
2022-09-01T10:23:14.920Z,955.52
2022-09-01T10:24:27.341Z,955.59
2022-09-01T10:25:10.352Z,955.50
2022-09-01T10:26:09.479Z,955.49
2022-09-01T10:27:13.849Z,955.52
2022-09-01T10:28:08.191Z,955.57
2022-09-01T10:29:07.188Z,955.51
2022-09-01T10:30:18.948Z,955.50
2022-09-01T10:31:09.165Z,955.55
2022-09-01T10:32:30.731Z,955.51
2022-09-01T10:33:19.191Z,955.53
2022-09-01T10:34:08.108Z,955.51
2022-09-01T10:35:07.089Z,955.54
2022-09-01T10:36:07.924Z,955.52
2022-09-01T10:37:11.405Z,955.51
2022-09-01T10:38:11.939Z,955.54
2022-09-01T10:39:09.089Z,955.55
2022-09-01T10:40:07.071Z,955.51
2022-09-01T10:41:07.206Z,955.52
2022-09-01T10:42:07.008Z,955.53
2022-09-01T10:43:12.393Z,955.51
2022-09-01T10:44:07.999Z,955.51
2022-09-01T10:45:06.969Z,955.50
2022-09-01T10:46:08.983Z,955.48
2022-09-01T10:47:08.118Z,955.52
2022-09-01T10:48:06.940Z,955.53
2022-09-01T10:49:07.402Z,955.58
2022-09-01T10:50:10.103Z,955.53
2022-09-01T10:51:06.907Z,955.50
2022-09-01T10:52:12.858Z,955.49
2022-09-01T10:53:07.878Z,955.58
2022-09-01T10:54:06.991Z,955.50
2022-09-01T10:55:06.896Z,955.51
2022-09-01T10:56:23.990Z,955.53
2022-09-01T10:57:08.914Z,955.51
2022-09-01T10:59:30.076Z,955.51
2022-09-01T11:00:34.906Z,955.49
2022-09-01T11:01:11.368Z,955.48
2022-09-01T11:04:07.817Z,955.46
2022-09-01T11:05:06.800Z,955.47
2022-09-01T11:06:13.854Z,955.47
2022-09-01T11:07:14.899Z,955.50
2022-09-01T11:08:15.599Z,955.50
2022-09-01T11:09:07.697Z,955.48
2022-09-01T11:10:11.242Z,955.51
2022-09-01T11:11:07.677Z,955.52
2022-09-01T11:12:06.713Z,955.46
2022-09-01T11:13:06.656Z,955.44
2022-09-01T11:14:06.656Z,955.46
2022-09-01T11:15:07.009Z,955.46
2022-09-01T11:16:06.641Z,955.45
2022-09-01T11:17:06.685Z,955.40
2022-09-01T11:18:06.597Z,955.43
2022-09-01T11:19:06.585Z,955.48
2022-09-01T11:20:06.579Z,955.39
2022-09-01T11:21:06.596Z,955.46
2022-09-01T11:22:06.556Z,955.40
2022-09-01T11:23:06.536Z,955.37
2022-09-01T11:24:06.535Z,955.38
2022-09-01T11:25:12.421Z,955.34
2022-09-01T11:26:22.931Z,955.31
2022-09-01T11:27:07.495Z,955.33
2022-09-01T11:28:06.503Z,955.29
2022-09-01T11:29:06.517Z,955.32
2022-09-01T11:30:06.514Z,955.33
2022-09-01T11:31:06.509Z,955.27
2022-09-01T11:32:06.475Z,955.32
2022-09-01T11:33:06.427Z,955.34
2022-09-01T11:34:06.423Z,955.32
2022-09-01T11:35:06.406Z,955.31
2022-09-01T11:36:06.403Z,955.29
2022-09-01T11:37:06.394Z,955.27
2022-09-01T11:38:06.376Z,955.32
2022-09-01T11:39:06.365Z,955.25
2022-09-01T11:40:06.449Z,955.24
2022-09-01T11:41:06.334Z,955.18
2022-09-01T11:42:06.344Z,955.21
2022-09-01T11:43:06.314Z,955.30
2022-09-01T11:44:07.308Z,955.21
2022-09-01T11:45:06.304Z,955.24
2022-09-01T11:46:06.323Z,955.24
2022-09-01T11:47:08.580Z,955.21
2022-09-01T11:48:07.273Z,955.24
2022-09-01T11:49:06.244Z,955.22
2022-09-01T11:50:06.289Z,955.18
2022-09-01T11:51:06.223Z,955.12
2022-09-01T11:52:06.226Z,955.16
2022-09-01T11:53:06.203Z,955.15
2022-09-01T11:54:06.193Z,955.15
2022-09-01T11:55:06.184Z,955.25
2022-09-01T11:56:06.172Z,955.21
2022-09-01T11:57:06.164Z,955.19
2022-09-01T11:58:06.156Z,955.19
2022-09-01T11:59:06.137Z,955.20
2022-09-01T12:00:06.133Z,955.23
2022-09-01T12:01:06.162Z,955.17
2022-09-01T12:02:06.213Z,955.20
2022-09-01T12:03:06.228Z,955.20
2022-09-01T12:04:06.085Z,955.20
2022-09-01T12:05:06.079Z,955.19
2022-09-01T12:06:06.085Z,955.21
2022-09-01T12:07:06.045Z,955.14
2022-09-01T12:08:06.033Z,955.14
2022-09-01T12:09:06.033Z,955.09
2022-09-01T12:10:06.020Z,955.13
2022-09-01T12:11:06.003Z,955.08
2022-09-01T12:12:05.998Z,955.13
2022-09-01T12:13:06.013Z,955.04
2022-09-01T12:14:10.491Z,955.15
2022-09-01T12:15:07.120Z,955.11
2022-09-01T12:16:21.214Z,955.02
2022-09-01T12:17:06.985Z,955.13
2022-09-01T12:18:05.931Z,955.06
2022-09-01T12:19:05.923Z,955.14
2022-09-01T12:20:05.912Z,955.11
2022-09-01T12:21:05.883Z,955.09
2022-09-01T12:22:05.922Z,955.14
2022-09-01T12:23:05.876Z,955.11
2022-09-01T12:24:05.875Z,955.05
2022-09-01T12:25:05.853Z,955.06
2022-09-01T12:26:05.833Z,955.11
2022-09-01T12:27:05.821Z,955.08
2022-09-01T12:28:05.824Z,955.03
2022-09-01T12:29:05.804Z,955.06
2022-09-01T12:30:05.792Z,955.09
2022-09-01T12:31:07.561Z,955.07
2022-09-01T12:32:05.887Z,955.06
2022-09-01T12:34:06.759Z,955.03
2022-09-01T12:35:11.262Z,955.04
2022-09-01T12:36:06.732Z,955.08
2022-09-01T12:37:05.720Z,955.05
2022-09-01T12:38:09.447Z,955.01
2022-09-01T12:39:05.684Z,955.03
2022-09-01T12:40:05.681Z,955.07
2022-09-01T12:41:05.660Z,955.05
2022-09-01T12:42:05.744Z,955.10
2022-09-01T12:43:05.647Z,955.03
2022-09-01T12:44:05.717Z,955.12
2022-09-01T12:45:05.631Z,955.11
2022-09-01T12:46:05.630Z,955.06
2022-09-01T12:47:05.590Z,955.06
2022-09-01T12:48:05.600Z,955.01
2022-09-01T12:49:05.616Z,955.05
2022-09-01T12:50:05.644Z,954.96
2022-09-01T12:51:05.565Z,954.96
2022-09-01T12:52:05.542Z,954.96
2022-09-01T12:53:05.862Z,954.95
2022-09-01T12:54:05.522Z,954.93
2022-09-01T12:55:05.503Z,954.99